Time,TemperatureF,DewpointF,PressureIn,WindDirection,WindDirectionDegrees,WindSpeedMPH,WindSpeedGustMPH,Humidity,HourlyPrecipIn,Conditions,Clouds,dailyrainin,SoftwareType,DateUTC
2013-09-08 00:00:00,69.7,66.6,29.96,WSW,252,0.0,0.0,90,0.00,,,0.00,Wunderground v.1.15,2013-09-08 05:00:00,
2013-09-08 00:05:00,69.6,66.5,29.96,WSW,252,0.0,0.0,90,0.00,,,0.00,Wunderground v.1.15,2013-09-08 05:05:00,
2013-09-08 00:15:00,69.8,67.1,29.96,WSW,252,0.0,0.0,91,0.00,,,0.00,Wunderground v.1.15,2013-09-08 05:15:00,
2013-09-08 00:20:00,69.8,67.1,29.96,WSW,252,0.0,0.0,91,0.00,,,0.00,Wunderground v.1.15,2013-09-08 05:20:00,
2013-09-08 00:25:00,69.9,67.2,29.97,WSW,252,0.0,0.0,91,0.00,,,0.00,Wunderground v.1.15,2013-09-08 05:25:00,
2013-09-08 00:35:00,70.0,67.3,29.96,WSW,252,0.0,0.0,91,0.00,,,0.00,Wunderground v.1.15,2013-09-08 05:35:00,
2013-09-08 00:40:00,70.0,67.3,29.97,WSW,252,0.0,0.0,91,0.00,,,0.00,Wunderground v.1.15,2013-09-08 05:40:00,
2013-09-08 00:45:00,70.1,67.3,29.96,WSW,252,0.0,0.0,91,0.00,,,0.00,Wunderground v.1.15,2013-09-08 05:45:00,
2013-09-08 00:50:00,70.1,67.0,29.97,WSW,252,0.0,0.0,90,0.00,,,0.00,Wunderground v.1.15,2013-09-08 05:50:00,
2013-09-08 01:00:00,70.2,67.1,29.97,WSW,252,0.0,0.0,90,0.00,,,0.00,Wunderground v.1.15,2013-09-08 06:00:00,
2013-09-08 01:05:00,70.3,67.2,29.96,WSW,252,0.0,0.0,90,0.00,,,0.00,Wunderground v.1.15,2013-09-08 06:05:00,
2013-09-08 01:15:00,70.3,67.2,29.96,WSW,252,0.0,0.0,90,0.00,,,0.00,Wunderground v.1.15,2013-09-08 06:15:00,
2013-09-08 01:20:00,70.4,67.3,29.96,WSW,252,0.0,0.0,90,0.00,,,0.00,Wunderground v.1.15,2013-09-08 06:20:00,
2013-09-08 01:25:00,70.4,67.3,29.96,WSW,252,0.0,0.0,90,0.00,,,0.00,Wunderground v.1.15,2013-09-08 06:25:00,
2013-09-08 01:35:00,70.6,67.5,29.95,WSW,252,0.0,0.0,90,0.00,,,0.00,Wunderground v.1.15,2013-09-08 06:35:00,
2013-09-08 01:40:00,70.7,67.6,29.95,WSW,252,0.0,0.0,90,0.00,,,0.00,Wunderground v.1.15,2013-09-08 06:40:00,
2013-09-08 01:45:00,70.7,67.6,29.95,WSW,252,0.0,0.0,90,0.00,,,0.00,Wunderground v.1.15,2013-09-08 06:45:00,
2013-09-08 01:50:00,71.0,67.9,29.95,WSW,238,0.0,0.0,90,0.00,,,0.00,Wunderground v.1.15,2013-09-08 06:50:00,
2013-09-08 01:55:00,71.3,67.9,29.95,WSW,238,0.0,0.0,89,0.00,,,0.00,Wunderground v.1.15,2013-09-08 06:55:00,
2013-09-08 02:00:00,72.1,68.3,29.95,WSW,237,0.0,0.0,88,0.00,,,0.00,Wunderground v.1.15,2013-09-08 07:00:00,
2013-09-08 02:05:00,72.9,68.5,29.95,ESE,105,0.0,0.0,86,0.00,,,0.00,Wunderground v.1.15,2013-09-08 07:05:00,
2013-09-08 02:15:00,73.6,68.8,29.96,ESE,105,0.0,0.0,85,0.00,,,0.00,Wunderground v.1.15,2013-09-08 07:15:00,
2013-09-08 02:20:00,73.6,68.5,29.96,ESE,105,0.0,0.0,84,0.00,,,0.00,Wunderground v.1.15,2013-09-08 07:20:00,
2013-09-08 02:30:00,73.7,68.6,29.96,ESE,109,0.0,0.0,84,0.00,,,0.00,Wunderground v.1.15,2013-09-08 07:30:00,
2013-09-08 02:35:00,73.8,68.3,29.96,ESE,112,0.0,0.0,83,0.00,,,0.00,Wunderground v.1.15,2013-09-08 07:35:00,
2013-09-08 02:40:00,73.8,68.3,29.96,SE,125,0.0,5.0,83,0.00,,,0.00,Wunderground v.1.15,2013-09-08 07:40:00,
2013-09-08 02:45:00,73.8,68.3,29.96,ESE,123,0.0,5.0,83,0.00,,,0.00,Wunderground v.1.15,2013-09-08 07:45:00,
2013-09-08 02:50:00,73.9,68.4,29.97,ESE,113,0.0,0.0,83,0.00,,,0.00,Wunderground v.1.15,2013-09-08 07:50:00,
2013-09-08 02:55:00,73.8,68.7,29.97,ESE,107,0.0,0.0,84,0.00,,,0.00,Wunderground v.1.15,2013-09-08 07:55:00,
2013-09-08 03:00:00,73.7,68.6,29.97,East,101,1.0,1.0,84,0.00,,,0.00,Wunderground v.1.15,2013-09-08 08:00:00,
2013-09-08 03:05:00,73.5,68.4,29.97,ESE,121,1.0,1.0,84,0.00,,,0.00,Wunderground v.1.15,2013-09-08 08:05:00,
2013-09-08 03:15:00,73.1,68.3,29.97,NNE,13,0.0,1.0,85,0.00,,,0.00,Wunderground v.1.15,2013-09-08 08:15:00,
2013-09-08 03:20:00,73.0,68.2,29.97,South,172,0.0,0.0,85,0.00,,,0.00,Wunderground v.1.15,2013-09-08 08:20:00,
2013-09-08 03:25:00,72.6,68.2,29.97,SE,146,0.0,0.0,86,0.00,,,0.00,Wunderground v.1.15,2013-09-08 08:25:00,
2013-09-08 03:30:00,72.4,68.0,29.98,SSE,165,0.0,1.0,86,0.00,,,0.00,Wunderground v.1.15,2013-09-08 08:30:00,
2013-09-08 03:40:00,72.0,67.9,29.98,SSE,161,0.0,0.0,87,0.00,,,0.00,Wunderground v.1.15,2013-09-08 08:40:00,
2013-09-08 03:45:00,71.8,67.7,29.98,ESE,103,0.0,0.0,87,0.00,,,0.00,Wunderground v.1.15,2013-09-08 08:45:00,
2013-09-08 03:55:00,71.4,67.3,29.99,ESE,112,0.0,0.0,87,0.00,,,0.00,Wunderground v.1.15,2013-09-08 08:55:00,
2013-09-08 04:00:00,71.3,67.2,29.99,NE,44,1.0,1.0,87,0.00,,,0.00,Wunderground v.1.15,2013-09-08 09:00:00,
2013-09-08 04:05:00,71.1,67.4,29.99,ESE,114,1.0,1.0,88,0.00,,,0.00,Wunderground v.1.15,2013-09-08 09:05:00,
2013-09-08 04:15:00,70.6,66.9,29.98,East,95,1.0,2.0,88,0.00,,,0.00,Wunderground v.1.15,2013-09-08 09:15:00,
2013-09-08 04:25:00,70.4,66.7,29.99,ESE,122,1.0,1.0,88,0.00,,,0.00,Wunderground v.1.15,2013-09-08 09:25:00,
2013-09-08 04:30:00,70.3,66.9,29.99,ESE,115,1.0,1.0,89,0.00,,,0.00,Wunderground v.1.15,2013-09-08 09:30:00,
2013-09-08 04:35:00,70.1,66.4,29.99,SE,126,1.0,1.0,88,0.00,,,0.00,Wunderground v.1.15,2013-09-08 09:35:00,
2013-09-08 04:40:00,70.0,66.3,29.98,East,101,1.0,1.0,88,0.00,,,0.00,Wunderground v.1.15,2013-09-08 09:40:00,
2013-09-08 04:45:00,69.8,66.1,29.99,SE,124,1.0,1.0,88,0.00,,,0.00,Wunderground v.1.15,2013-09-08 09:45:00,
2013-09-08 04:50:00,69.7,66.0,29.99,SSE,155,1.0,1.0,88,0.00,,,0.00,Wunderground v.1.15,2013-09-08 09:50:00,
2013-09-08 04:55:00,69.6,65.9,29.99,ESE,102,1.0,1.0,88,0.00,,,0.00,Wunderground v.1.15,2013-09-08 09:55:00,
2013-09-08 05:00:00,69.6,65.9,29.99,ESE,114,1.0,1.0,88,0.00,,,0.00,Wunderground v.1.15,2013-09-08 10:00:00,
2013-09-08 05:05:00,69.5,65.8,29.99,ESE,113,1.0,1.0,88,0.00,,,0.00,Wunderground v.1.15,2013-09-08 10:05:00,
2013-09-08 05:15:00,69.5,65.8,30.00,ESE,107,1.0,8.0,88,0.00,,,0.00,Wunderground v.1.15,2013-09-08 10:15:00,
2013-09-08 05:20:00,69.4,65.7,30.00,ENE,61,1.0,1.0,88,0.00,,,0.00,Wunderground v.1.15,2013-09-08 10:20:00,
2013-09-08 05:25:00,69.4,65.7,30.00,SSE,148,1.0,1.0,88,0.00,,,0.00,Wunderground v.1.15,2013-09-08 10:25:00,
2013-09-08 05:30:00,69.4,65.7,30.00,SE,135,1.0,1.0,88,0.00,,,0.00,Wunderground v.1.15,2013-09-08 10:30:00,
2013-09-08 05:35:00,69.4,65.7,30.00,ESE,118,1.0,1.0,88,0.00,,,0.00,Wunderground v.1.15,2013-09-08 10:35:00,
2013-09-08 05:40:00,69.3,65.6,30.01,ESE,121,0.0,0.0,88,0.00,,,0.00,Wunderground v.1.15,2013-09-08 10:40:00,
2013-09-08 05:45:00,69.2,65.5,30.01,ESE,109,1.0,7.0,88,0.00,,,0.00,Wunderground v.1.15,2013-09-08 10:45:00,
2013-09-08 05:55:00,68.8,65.1,30.01,ESE,110,1.0,2.0,88,0.00,,,0.00,Wunderground v.1.15,2013-09-08 10:55:00,
2013-09-08 06:00:00,68.6,64.9,30.01,SSE,159,1.0,5.0,88,0.00,,,0.00,Wunderground v.1.15,2013-09-08 11:00:00,
2013-09-08 06:05:00,68.5,64.8,30.01,South,180,1.0,5.0,88,0.00,,,0.00,Wunderground v.1.15,2013-09-08 11:05:00,
2013-09-08 06:15:00,68.3,64.9,30.02,South,177,1.0,1.0,89,0.00,,,0.00,Wunderground v.1.15,2013-09-08 11:15:00,
2013-09-08 06:20:00,68.3,64.9,30.02,SSE,150,1.0,1.0,89,0.00,,,0.00,Wunderground v.1.15,2013-09-08 11:20:00,
2013-09-08 06:25:00,68.3,64.9,30.02,ESE,107,0.0,1.0,89,0.00,,,0.00,Wunderground v.1.15,2013-09-08 11:25:00,
2013-09-08 06:35:00,68.0,64.6,30.03,SE,140,0.0,1.0,89,0.00,,,0.00,Wunderground v.1.15,2013-09-08 11:35:00,
2013-09-08 06:40:00,67.9,64.2,30.03,East,98,0.0,0.0,88,0.00,,,0.00,Wunderground v.1.15,2013-09-08 11:40:00,
2013-09-08 06:45:00,67.8,64.4,30.03,ESE,103,1.0,1.0,89,0.00,,,0.00,Wunderground v.1.15,2013-09-08 11:45:00,
2013-09-08 06:50:00,67.7,64.3,30.03,SE,129,1.0,1.0,89,0.00,,,0.00,Wunderground v.1.15,2013-09-08 11:50:00,
2013-09-08 07:00:00,67.6,64.2,30.03,East,86,1.0,1.0,89,0.00,,,0.00,Wunderground v.1.15,2013-09-08 12:00:00,
2013-09-08 07:05:00,67.5,64.1,30.03,SE,133,1.0,1.0,89,0.00,,,0.00,Wunderground v.1.15,2013-09-08 12:05:00,
2013-09-08 07:15:00,67.5,64.1,30.03,ESE,106,0.0,4.0,89,0.00,,,0.00,Wunderground v.1.15,2013-09-08 12:15:00,
2013-09-08 07:20:00,67.5,64.1,30.03,East,92,1.0,1.0,89,0.00,,,0.00,Wunderground v.1.15,2013-09-08 12:20:00,
2013-09-08 07:30:00,67.4,64.0,30.03,SE,129,1.0,1.0,89,0.00,,,0.00,Wunderground v.1.15,2013-09-08 12:30:00,
2013-09-08 07:40:00,67.4,64.0,30.03,SE,128,1.0,1.0,89,0.00,,,0.00,Wunderground v.1.15,2013-09-08 12:40:00,
2013-09-08 07:45:00,67.5,64.1,30.03,East,101,1.0,4.0,89,0.00,,,0.00,Wunderground v.1.15,2013-09-08 12:45:00,
2013-09-08 07:50:00,67.6,64.2,30.03,ESE,111,1.0,8.0,89,0.00,,,0.00,Wunderground v.1.15,2013-09-08 12:50:00,
2013-09-08 07:55:00,67.8,64.4,30.03,South,178,1.0,8.0,89,0.00,,,0.00,Wunderground v.1.15,2013-09-08 12:55:00,
2013-09-08 08:05:00,68.2,64.8,30.03,ESE,115,1.0,1.0,89,0.00,,,0.00,Wunderground v.1.15,2013-09-08 13:05:00,
2013-09-08 08:15:00,68.4,64.7,30.03,ESE,111,0.0,0.0,88,0.00,,,0.00,Wunderground v.1.15,2013-09-08 13:15:00,
2013-09-08 08:20:00,68.5,64.8,30.03,SSE,167,1.0,1.0,88,0.00,,,0.00,Wunderground v.1.15,2013-09-08 13:20:00,
2013-09-08 08:25:00,68.6,64.9,30.03,ESE,117,1.0,1.0,88,0.00,,,0.00,Wunderground v.1.15,2013-09-08 13:25:00,
2013-09-08 08:30:00,68.8,65.1,30.04,SSE,159,1.0,4.0,88,0.00,,,0.00,Wunderground v.1.15,2013-09-08 13:30:00,
2013-09-08 08:35:00,69.0,65.0,30.04,SSE,156,1.0,4.0,87,0.00,,,0.00,Wunderground v.1.15,2013-09-08 13:35:00,
2013-09-08 08:45:00,69.1,65.1,30.04,South,190,1.0,8.0,87,0.00,,,0.00,Wunderground v.1.15,2013-09-08 13:45:00,
2013-09-08 08:50:00,69.2,65.2,30.04,ESE,107,1.0,1.0,87,0.00,,,0.00,Wunderground v.1.15,2013-09-08 13:50:00,
2013-09-08 08:55:00,69.4,65.4,30.04,South,186,1.0,2.0,87,0.00,,,0.00,Wunderground v.1.15,2013-09-08 13:55:00,
2013-09-08 09:00:00,69.5,65.5,30.04,East,82,1.0,1.0,87,0.00,,,0.00,Wunderground v.1.15,2013-09-08 14:00:00,
2013-09-08 09:05:00,69.7,65.3,30.04,SE,125,1.0,1.0,86,0.00,,,0.00,Wunderground v.1.15,2013-09-08 14:05:00,
2013-09-08 09:15:00,69.7,65.3,30.04,ESE,119,0.0,1.0,86,0.00,,,0.00,Wunderground v.1.15,2013-09-08 14:15:00,
2013-09-08 09:20:00,69.8,65.4,30.04,SE,139,0.0,0.0,86,0.00,,,0.00,Wunderground v.1.15,2013-09-08 14:20:00,
2013-09-08 09:25:00,70.0,65.6,30.04,SE,139,0.0,0.0,86,0.00,,,0.00,Wunderground v.1.15,2013-09-08 14:25:00,
2013-09-08 09:30:00,70.3,65.9,30.04,ESE,105,0.0,0.0,86,0.00,,,0.00,Wunderground v.1.15,2013-09-08 14:30:00,
2013-09-08 09:35:00,70.6,66.2,30.04,SSE,154,1.0,1.0,86,0.00,,,0.00,Wunderground v.1.15,2013-09-08 14:35:00,
2013-09-08 09:45:00,70.9,66.2,30.05,SE,134,1.0,5.0,85,0.00,,,0.00,Wunderground v.1.15,2013-09-08 14:45:00,
2013-09-08 09:55:00,71.3,66.6,30.05,South,179,1.0,1.0,85,0.00,,,0.00,Wunderground v.1.15,2013-09-08 14:55:00,
2013-09-08 10:00:00,71.5,66.4,30.05,SE,142,1.0,1.0,84,0.00,,,0.00,Wunderground v.1.15,2013-09-08 15:00:00,
2013-09-08 10:05:00,71.7,66.6,30.06,SE,131,1.0,1.0,84,0.00,,,0.00,Wunderground v.1.15,2013-09-08 15:05:00,
2013-09-08 10:15:00,72.0,66.6,30.06,ESE,102,1.0,7.0,83,0.00,,,0.00,Wunderground v.1.15,2013-09-08 15:15:00,
2013-09-08 10:25:00,72.2,66.7,30.06,SE,138,1.0,1.0,83,0.00,,,0.00,Wunderground v.1.15,2013-09-08 15:25:00,
2013-09-08 10:30:00,72.4,66.9,30.06,East,98,0.0,0.0,83,0.00,,,0.00,Wunderground v.1.15,2013-09-08 15:30:00,
2013-09-08 10:35:00,72.5,67.4,30.06,East,98,0.0,0.0,84,0.00,,,0.00,Wunderground v.1.15,2013-09-08 15:35:00,
2013-09-08 10:40:00,72.6,67.1,30.06,SSE,157,0.0,0.0,83,0.00,,,0.00,Wunderground v.1.15,2013-09-08 15:40:00,
2013-09-08 10:50:00,72.5,67.0,30.06,ESE,121,1.0,1.0,83,0.00,,,0.00,Wunderground v.1.15,2013-09-08 15:50:00,
2013-09-08 10:55:00,72.5,67.0,30.06,ESE,120,1.0,1.0,83,0.00,,,0.00,Wunderground v.1.15,2013-09-08 15:55:00,
2013-09-08 11:00:00,72.6,67.1,30.06,ESE,111,1.0,1.0,83,0.00,,,0.00,Wunderground v.1.15,2013-09-08 16:00:00,
2013-09-08 11:05:00,72.7,67.2,30.06,South,171,0.0,1.0,83,0.00,,,0.00,Wunderground v.1.15,2013-09-08 16:05:00,
2013-09-08 11:15:00,72.9,67.1,30.06,ESE,107,0.0,0.0,82,0.00,,,0.00,Wunderground v.1.15,2013-09-08 16:15:00,
2013-09-08 11:20:00,72.9,67.4,30.06,East,88,0.0,0.0,83,0.00,,,0.00,Wunderground v.1.15,2013-09-08 16:20:00,
2013-09-08 11:30:00,72.8,67.3,30.06,ESE,117,0.0,4.0,83,0.00,,,0.00,Wunderground v.1.15,2013-09-08 16:30:00,
2013-09-08 11:35:00,72.8,67.3,30.06,ESE,106,0.0,4.0,83,0.00,,,0.00,Wunderground v.1.15,2013-09-08 16:35:00,
2013-09-08 11:45:00,73.1,67.6,30.06,SE,136,0.0,0.0,83,0.00,,,0.00,Wunderground v.1.15,2013-09-08 16:45:00,
2013-09-08 11:50:00,73.3,67.8,30.06,ESE,110,0.0,0.0,83,0.00,,,0.00,Wunderground v.1.15,2013-09-08 16:50:00,
2013-09-08 11:55:00,73.5,68.0,30.06,SE,133,0.0,0.0,83,0.00,,,0.00,Wunderground v.1.15,2013-09-08 16:55:00,
2013-09-08 12:00:00,73.5,68.0,30.06,East,96,0.0,1.0,83,0.00,,,0.00,Wunderground v.1.15,2013-09-08 17:00:00,
2013-09-08 12:05:00,73.7,67.9,30.05,East,96,1.0,1.0,82,0.00,,,0.00,Wunderground v.1.15,2013-09-08 17:05:00,
2013-09-08 12:15:00,74.0,68.2,30.05,East,100,1.0,4.0,82,0.00,,,0.00,Wunderground v.1.15,2013-09-08 17:15:00,
2013-09-08 12:20:00,74.2,68.3,30.05,East,101,1.0,1.0,82,0.00,,,0.00,Wunderground v.1.15,2013-09-08 17:20:00,
2013-09-08 12:25:00,74.4,68.5,30.05,East,98,1.0,1.0,82,0.00,,,0.00,Wunderground v.1.15,2013-09-08 17:25:00,
2013-09-08 12:30:00,74.5,68.3,30.05,East,101,1.0,5.0,81,0.00,,,0.00,Wunderground v.1.15,2013-09-08 17:30:00,
2013-09-08 12:35:00,74.4,68.2,30.05,East,99,1.0,5.0,81,0.00,,,0.00,Wunderground v.1.15,2013-09-08 17:35:00,
2013-09-08 12:45:00,74.8,68.6,30.05,ESE,113,0.0,4.0,81,0.00,,,0.00,Wunderground v.1.15,2013-09-08 17:45:00,
2013-09-08 12:50:00,74.8,68.6,30.05,ESE,107,0.0,0.0,81,0.00,,,0.00,Wunderground v.1.15,2013-09-08 17:50:00,
2013-09-08 12:55:00,75.1,68.9,30.05,ESE,115,1.0,1.0,81,0.00,,,0.00,Wunderground v.1.15,2013-09-08 17:55:00,
2013-09-08 13:05:00,75.8,69.2,30.04,SSE,168,0.0,0.0,80,0.00,,,0.00,Wunderground v.1.15,2013-09-08 18:05:00,
2013-09-08 13:15:00,76.3,69.3,30.04,SSE,168,1.0,1.0,79,0.00,,,0.00,Wunderground v.1.15,2013-09-08 18:15:00,
2013-09-08 13:20:00,76.3,69.3,30.03,ESE,108,1.0,1.0,79,0.00,,,0.00,Wunderground v.1.15,2013-09-08 18:20:00,
2013-09-08 13:25:00,76.6,69.6,30.03,ESE,111,1.0,1.0,79,0.00,,,0.00,Wunderground v.1.15,2013-09-08 18:25:00,
2013-09-08 13:30:00,77.0,69.6,30.03,ENE,66,1.0,4.0,78,0.00,,,0.00,Wunderground v.1.15,2013-09-08 18:30:00,
2013-09-08 13:40:00,77.3,69.9,30.02,SE,139,1.0,1.0,78,0.00,,,0.00,Wunderground v.1.15,2013-09-08 18:40:00,
2013-09-08 13:50:00,78.7,70.1,30.02,SE,136,1.0,1.0,75,0.00,,,0.00,Wunderground v.1.15,2013-09-08 18:50:00,
2013-09-08 13:55:00,78.4,69.8,30.02,East,100,1.0,1.0,75,0.00,,,0.00,Wunderground v.1.15,2013-09-08 18:55:00,
2013-09-08 14:00:00,78.0,69.8,30.02,SE,126,1.0,1.0,76,0.00,,,0.00,Wunderground v.1.15,2013-09-08 19:00:00,
2013-09-08 14:05:00,78.4,70.2,30.02,East,89,1.0,1.0,76,0.00,,,0.00,Wunderground v.1.15,2013-09-08 19:05:00,
2013-09-08 14:15:00,78.7,70.5,30.01,East,99,1.0,1.0,76,0.00,,,0.00,Wunderground v.1.15,2013-09-08 19:15:00,
2013-09-08 14:20:00,78.7,70.1,30.01,SSE,164,1.0,1.0,75,0.00,,,0.00,Wunderground v.1.15,2013-09-08 19:20:00,
2013-09-08 14:25:00,78.7,70.1,30.01,East,98,0.0,1.0,75,0.00,,,0.00,Wunderground v.1.15,2013-09-08 19:25:00,
2013-09-08 14:30:00,78.7,70.1,30.01,ESE,105,1.0,1.0,75,0.00,,,0.00,Wunderground v.1.15,2013-09-08 19:30:00,
2013-09-08 14:40:00,78.3,69.7,30.01,ESE,105,1.0,1.0,75,0.00,,,0.00,Wunderground v.1.15,2013-09-08 19:40:00,
2013-09-08 14:45:00,78.2,70.0,30.01,South,179,1.0,1.0,76,0.00,,,0.00,Wunderground v.1.15,2013-09-08 19:45:00,
2013-09-08 14:50:00,78.4,70.2,30.00,SE,136,1.0,1.0,76,0.00,,,0.00,Wunderground v.1.15,2013-09-08 19:50:00,
2013-09-08 15:00:00,78.7,70.5,29.99,South,186,1.0,4.0,76,0.00,,,0.00,Wunderground v.1.15,2013-09-08 20:00:00,
2013-09-08 15:05:00,79.6,71.0,29.99,SE,142,1.0,4.0,75,0.00,,,0.00,Wunderground v.1.15,2013-09-08 20:05:00,
2013-09-08 15:15:00,81.0,70.7,29.99,SE,137,1.0,7.0,71,0.00,,,0.00,Wunderground v.1.15,2013-09-08 20:15:00,
2013-09-08 15:20:00,80.8,70.9,29.99,SSE,163,2.0,2.0,72,0.00,,,0.00,Wunderground v.1.15,2013-09-08 20:20:00,
2013-09-08 15:25:00,80.9,70.6,29.99,SSE,163,2.0,2.0,71,0.00,,,0.00,Wunderground v.1.15,2013-09-08 20:25:00,
2013-09-08 15:30:00,80.3,70.0,29.99,East,88,2.0,2.0,71,0.00,,,0.00,Wunderground v.1.15,2013-09-08 20:30:00,
2013-09-08 15:40:00,80.1,70.3,29.98,South,169,1.0,1.0,72,0.00,,,0.00,Wunderground v.1.15,2013-09-08 20:40:00,
2013-09-08 15:50:00,80.5,70.6,29.98,South,184,1.0,5.0,72,0.00,,,0.00,Wunderground v.1.15,2013-09-08 20:50:00,
2013-09-08 15:55:00,80.6,70.3,29.98,East,98,1.0,5.0,71,0.00,,,0.00,Wunderground v.1.15,2013-09-08 20:55:00,
2013-09-08 16:00:00,80.6,70.7,29.97,SE,132,1.0,1.0,72,0.00,,,0.00,Wunderground v.1.15,2013-09-08 21:00:00,
2013-09-08 16:05:00,80.1,70.3,29.97,SE,130,2.0,2.0,72,0.00,,,0.00,Wunderground v.1.15,2013-09-08 21:05:00,
2013-09-08 16:15:00,79.6,70.2,29.97,South,175,1.0,2.0,73,0.00,,,0.00,Wunderground v.1.15,2013-09-08 21:15:00,
2013-09-08 16:20:00,79.3,70.3,29.97,SE,141,1.0,1.0,74,0.00,,,0.00,Wunderground v.1.15,2013-09-08 21:20:00,
2013-09-08 16:30:00,79.1,70.1,29.97,South,183,1.0,3.0,74,0.00,,,0.00,Wunderground v.1.15,2013-09-08 21:30:00,
2013-09-08 16:35:00,79.3,70.3,29.97,ESE,114,1.0,3.0,74,0.00,,,0.00,Wunderground v.1.15,2013-09-08 21:35:00,
2013-09-08 16:45:00,79.5,70.5,29.97,SE,132,0.0,1.0,74,0.00,,,0.00,Wunderground v.1.15,2013-09-08 21:45:00,
2013-09-08 16:50:00,79.5,70.5,29.97,ESE,115,0.0,2.0,74,0.00,,,0.00,Wunderground v.1.15,2013-09-08 21:50:00,
2013-09-08 16:55:00,79.0,69.6,29.97,East,99,1.0,2.0,73,0.00,,,0.00,Wunderground v.1.15,2013-09-08 21:55:00,
2013-09-08 17:00:00,78.7,69.7,29.97,SE,132,1.0,4.0,74,0.00,,,0.00,Wunderground v.1.15,2013-09-08 22:00:00,
2013-09-08 17:05:00,78.3,69.7,29.97,South,176,1.0,6.0,75,0.00,,,0.00,Wunderground v.1.15,2013-09-08 22:05:00,
2013-09-08 17:15:00,77.8,69.6,29.98,South,171,1.0,4.0,76,0.00,,,0.00,Wunderground v.1.15,2013-09-08 22:15:00,
2013-09-08 17:20:00,77.6,69.4,29.98,East,90,1.0,1.0,76,0.00,,,0.00,Wunderground v.1.15,2013-09-08 22:20:00,
2013-09-08 17:25:00,77.5,69.3,29.98,SE,129,1.0,1.0,76,0.00,,,0.00,Wunderground v.1.15,2013-09-08 22:25:00,
2013-09-08 17:30:00,77.3,69.1,29.98,SE,146,1.0,1.0,76,0.00,,,0.00,Wunderground v.1.15,2013-09-08 22:30:00,
2013-09-08 17:35:00,77.2,69.0,29.98,East,92,1.0,1.0,76,0.00,,,0.00,Wunderground v.1.15,2013-09-08 22:35:00,
2013-09-08 17:45:00,76.9,69.1,29.97,ESE,107,1.0,1.0,77,0.00,,,0.00,Wunderground v.1.15,2013-09-08 22:45:00,
2013-09-08 17:50:00,76.8,69.0,29.97,South,175,0.0,0.0,77,0.00,,,0.00,Wunderground v.1.15,2013-09-08 22:50:00,
2013-09-08 17:55:00,76.7,68.9,29.97,SSE,160,0.0,0.0,77,0.00,,,0.00,Wunderground v.1.15,2013-09-08 22:55:00,
2013-09-08 18:00:00,76.5,68.7,29.97,SE,128,0.0,0.0,77,0.00,,,0.00,Wunderground v.1.15,2013-09-08 23:00:00,
2013-09-08 18:05:00,76.3,68.9,29.97,SE,132,0.0,1.0,78,0.00,,,0.00,Wunderground v.1.15,2013-09-08 23:05:00,
2013-09-08 18:15:00,76.0,68.6,29.97,SSW,207,1.0,1.0,78,0.00,,,0.00,Wunderground v.1.15,2013-09-08 23:15:00,
2013-09-08 18:20:00,75.8,68.4,29.97,East,89,1.0,1.0,78,0.00,,,0.00,Wunderground v.1.15,2013-09-08 23:20:00,
2013-09-08 18:25:00,75.6,68.3,29.97,ESE,113,1.0,1.0,78,0.00,,,0.00,Wunderground v.1.15,2013-09-08 23:25:00,
2013-09-08 18:30:00,75.5,68.5,29.97,ESE,114,0.0,0.0,79,0.00,,,0.00,Wunderground v.1.15,2013-09-08 23:30:00,
2013-09-08 18:40:00,75.1,68.1,29.97,SSE,150,1.0,1.0,79,0.00,,,0.00,Wunderground v.1.15,2013-09-08 23:40:00,
2013-09-08 18:45:00,75.0,68.0,29.97,South,187,1.0,5.0,79,0.00,,,0.00,Wunderground v.1.15,2013-09-08 23:45:00,
2013-09-08 18:50:00,74.8,67.8,29.97,ESE,104,0.0,4.0,79,0.00,,,0.00,Wunderground v.1.15,2013-09-08 23:50:00,
2013-09-08 18:55:00,74.6,68.0,29.97,ESE,109,0.0,4.0,80,0.00,,,0.00,Wunderground v.1.15,2013-09-08 23:55:00,
2013-09-08 19:00:00,74.4,67.8,29.97,ESE,107,0.0,2.0,80,0.00,,,0.00,Wunderground v.1.15,2013-09-09 00:00:00,
2013-09-08 19:05:00,74.2,67.6,29.96,SSE,161,1.0,2.0,80,0.00,,,0.00,Wunderground v.1.15,2013-09-09 00:05:00,
2013-09-08 19:15:00,73.7,67.5,29.95,South,181,1.0,1.0,81,0.00,,,0.00,Wunderground v.1.15,2013-09-09 00:15:00,
2013-09-08 19:20:00,73.5,67.7,29.96,South,179,1.0,1.0,82,0.00,,,0.00,Wunderground v.1.15,2013-09-09 00:20:00,
2013-09-08 19:25:00,73.3,67.5,29.96,SE,128,0.0,1.0,82,0.00,,,0.00,Wunderground v.1.15,2013-09-09 00:25:00,
2013-09-08 19:30:00,73.1,67.6,29.96,SE,128,0.0,0.0,83,0.00,,,0.00,Wunderground v.1.15,2013-09-09 00:30:00,
2013-09-08 19:35:00,72.9,67.4,29.97,ESE,110,0.0,0.0,83,0.00,,,0.00,Wunderground v.1.15,2013-09-09 00:35:00,
2013-09-08 19:40:00,72.7,67.2,29.97,ESE,113,0.0,4.0,83,0.00,,,0.00,Wunderground v.1.15,2013-09-09 00:40:00,
2013-09-08 19:50:00,72.4,67.3,29.97,ESE,119,0.0,0.0,84,0.00,,,0.00,Wunderground v.1.15,2013-09-09 00:50:00,
2013-09-08 19:55:00,72.2,67.1,29.97,ESE,119,0.0,0.0,84,0.00,,,0.00,Wunderground v.1.15,2013-09-09 00:55:00,
2013-09-08 20:00:00,72.1,67.0,29.98,ESE,119,0.0,0.0,84,0.00,,,0.00,Wunderground v.1.15,2013-09-09 01:00:00,
2013-09-08 20:05:00,72.1,67.0,29.98,ESE,107,0.0,0.0,84,0.00,,,0.00,Wunderground v.1.15,2013-09-09 01:05:00,
2013-09-08 20:15:00,71.8,67.0,29.98,ESE,114,0.0,0.0,85,0.00,,,0.00,Wunderground v.1.15,2013-09-09 01:15:00,
2013-09-08 20:20:00,71.7,66.9,29.98,ESE,107,0.0,0.0,85,0.00,,,0.00,Wunderground v.1.15,2013-09-09 01:20:00,
2013-09-08 20:25:00,71.5,66.8,29.98,ESE,117,0.0,0.0,85,0.00,,,0.00,Wunderground v.1.15,2013-09-09 01:25:00,
2013-09-08 20:35:00,71.3,66.6,29.98,East,101,0.0,0.0,85,0.00,,,0.00,Wunderground v.1.15,2013-09-09 01:35:00,
2013-09-08 20:40:00,71.1,66.7,29.98,East,101,0.0,0.0,86,0.00,,,0.00,Wunderground v.1.15,2013-09-09 01:40:00,
2013-09-08 20:45:00,70.9,66.5,29.98,SE,125,0.0,0.0,86,0.00,,,0.00,Wunderground v.1.15,2013-09-09 01:45:00,
2013-09-08 20:50:00,70.8,66.4,29.98,SE,125,0.0,0.0,86,0.00,,,0.00,Wunderground v.1.15,2013-09-09 01:50:00,
2013-09-08 20:55:00,70.7,66.3,29.98,ESE,106,0.0,0.0,86,0.00,,,0.00,Wunderground v.1.15,2013-09-09 01:55:00,
2013-09-08 21:05:00,70.5,66.1,29.98,ESE,110,0.0,0.0,86,0.00,,,0.00,Wunderground v.1.15,2013-09-09 02:05:00,
2013-09-08 21:15:00,70.3,66.2,29.98,ESE,110,0.0,0.0,87,0.00,,,0.00,Wunderground v.1.15,2013-09-09 02:15:00,
2013-09-08 21:20:00,70.1,66.0,29.98,ESE,110,0.0,0.0,87,0.00,,,0.00,Wunderground v.1.15,2013-09-09 02:20:00,
2013-09-08 21:25:00,69.9,65.9,29.98,ESE,110,0.0,0.0,87,0.00,,,0.00,Wunderground v.1.15,2013-09-09 02:25:00,
2013-09-08 21:35:00,69.6,65.6,29.98,East,90,0.0,1.0,87,0.00,,,0.00,Wunderground v.1.15,2013-09-09 02:35:00,
2013-09-08 21:40:00,69.5,65.5,29.98,ESE,102,0.0,2.0,87,0.00,,,0.00,Wunderground v.1.15,2013-09-09 02:40:00,
2013-09-08 21:45:00,69.4,65.4,29.98,ESE,102,0.0,2.0,87,0.00,,,0.00,Wunderground v.1.15,2013-09-09 02:45:00,
2013-09-08 21:50:00,69.4,65.4,29.98,ESE,115,0.0,0.0,87,0.00,,,0.00,Wunderground v.1.15,2013-09-09 02:50:00,
2013-09-08 21:55:00,69.3,65.3,29.98,ESE,105,0.0,0.0,87,0.00,,,0.00,Wunderground v.1.15,2013-09-09 02:55:00,
2013-09-08 22:00:00,69.3,65.3,29.98,East,93,0.0,1.0,87,0.00,,,0.00,Wunderground v.1.15,2013-09-09 03:00:00,
2013-09-08 22:05:00,69.4,65.4,29.98,East,99,0.0,1.0,87,0.00,,,0.00,Wunderground v.1.15,2013-09-09 03:05:00,
2013-09-08 22:15:00,69.4,65.4,29.98,East,99,0.0,0.0,87,0.00,,,0.00,Wunderground v.1.15,2013-09-09 03:15:00,
2013-09-08 22:20:00,69.4,65.4,29.98,ESE,109,0.0,0.0,87,0.00,,,0.00,Wunderground v.1.15,2013-09-09 03:20:00,
2013-09-08 22:25:00,69.4,65.4,29.98,ESE,104,0.0,1.0,87,0.00,,,0.00,Wunderground v.1.15,2013-09-09 03:25:00,
2013-09-08 22:30:00,69.4,65.4,29.98,ESE,103,0.0,0.0,87,0.00,,,0.00,Wunderground v.1.15,2013-09-09 03:30:00,
2013-09-08 22:35:00,69.5,65.5,29.98,ESE,103,0.0,0.0,87,0.00,,,0.00,Wunderground v.1.15,2013-09-09 03:35:00,
2013-09-08 22:45:00,69.5,65.5,29.98,ESE,109,0.0,0.0,87,0.00,,,0.00,Wunderground v.1.15,2013-09-09 03:45:00,
2013-09-08 22:50:00,69.5,65.5,29.98,East,94,0.0,0.0,87,0.00,,,0.00,Wunderground v.1.15,2013-09-09 03:50:00,
2013-09-08 22:55:00,69.5,65.5,29.97,East,95,0.0,0.0,87,0.00,,,0.00,Wunderground v.1.15,2013-09-09 03:55:00,
2013-09-08 23:00:00,69.5,65.5,29.97,East,98,0.0,4.0,87,0.00,,,0.00,Wunderground v.1.15,2013-09-09 04:00:00,
2013-09-08 23:05:00,69.4,65.4,29.98,SE,126,0.0,4.0,87,0.00,,,0.00,Wunderground v.1.15,2013-09-09 04:05:00,
2013-09-08 23:10:00,69.3,65.3,29.98,ESE,114,0.0,0.0,87,0.00,,,0.00,Wunderground v.1.15,2013-09-09 04:10:00,
2013-09-08 23:15:00,69.2,65.2,29.97,ESE,111,0.0,0.0,87,0.00,,,0.00,Wunderground v.1.15,2013-09-09 04:15:00,
2013-09-08 23:25:00,68.9,64.9,29.97,ESE,113,0.0,0.0,87,0.00,,,0.00,Wunderground v.1.15,2013-09-09 04:25:00,
2013-09-08 23:30:00,68.8,64.8,29.97,ESE,110,0.0,0.0,87,0.00,,,0.00,Wunderground v.1.15,2013-09-09 04:30:00,
2013-09-08 23:35:00,68.8,64.8,29.97,ESE,109,0.0,1.0,87,0.00,,,0.00,Wunderground v.1.15,2013-09-09 04:35:00,
2013-09-08 23:40:00,68.7,65.0,29.97,ESE,109,0.0,0.0,88,0.00,,,0.00,Wunderground v.1.15,2013-09-09 04:40:00,
2013-09-08 23:45:00,68.7,65.0,29.97,ESE,109,0.0,0.0,88,0.00,,,0.00,Wunderground v.1.15,2013-09-09 04:45:00,
2013-09-08 23:50:00,68.6,64.6,29.97,ESE,103,0.0,0.0,87,0.00,,,0.00,Wunderground v.1.15,2013-09-09 04:50:00,
2013-09-08 23:55:00,68.6,64.9,29.97,ESE,103,0.0,0.0,88,0.00,,,0.00,Wunderground v.1.15,2013-09-09 04:55:00,